Aviation Digital Data Service (ADDS)

Output produced by TAFs form (2353 UTC 18 February 2018)
found at http://www.aviationweather.gov/adds/tafs/
 
METAR text: RJOB 182300Z VRB01KT 9999 FEW020 BKN160 01/M04 Q1022
Conditions at: RJOB (OKAYAMA AIRPORT , JP) observed 2300 UTC 18 February 2018
Temperature: 1.0°C (34°F)
Dewpoint: -4.0°C (25°F) [RH = 69%]
Pressure (altimeter): 30.18 inches Hg (1022.0 mb)
Winds: variable direction winds at 1 MPH (1 knots; 0.5 m/s)
Visibility: 6 or more miles (10+ km)
Ceiling: 16000 feet AGL
Clouds: few clouds at 2000 feet AGL
broken clouds at 16000 feet AGL
Weather: no significant weather observed at this time

Forecast for: RJOB (OKAYAMA AIRPORT , JP)
Text: TAF RJOB 182306Z 1900/2006 08004KT 9999 FEW025
Forecast period: 0000 UTC 19 February 2018 to 0600 UTC 20 February 2018
Forecast type: FROM: standard forecast or significant change
Winds: from the E (80 degrees) at 5 MPH (4 knots; 2.1 m/s)
Visibility: 6 or more miles (10+ km)
Clouds: few clouds at 2500 feet AGL
Weather: no significant weather forecast for this period